N49 KFRG-KBOS
Flight info
| Callsign | N49 |
|---|---|
| Flight time | 0h 47m |
| Altitude | 3500 |
| Route | CCC GON PVD |
| Aircraft | BE20/L-SBGRY/S |
Departure
| Time | 2026-05-07 00:27 |
|---|---|
| Airport | Republic Airport (KFRG) |
Arrival
| Time | 2026-05-07 01:14 |
|---|---|
| Airport | Boston Logan International Airport (KBOS) |
| Time | Latitude | Longitude | Altitude | Speed | Heading |
|---|---|---|---|---|---|
| 2026-05-07 00:14 | 40.73291 | -73.41283 | 77 ft | 0 kts | 167° |
| 2026-05-07 00:24 | 40.73288 | -73.41282 | 77 ft | 7 kts | 155° |
| 2026-05-07 00:24 | 40.73303 | -73.41211 | 78 ft | 10 kts | 5° |
| 2026-05-07 00:24 | 40.73356 | -73.41293 | 72 ft | 18 kts | 302° |
| 2026-05-07 00:25 | 40.73458 | -73.41344 | 77 ft | 19 kts | 359° |
| 2026-05-07 00:25 | 40.73525 | -73.41352 | 78 ft | 0 kts | 347° |
| 2026-05-07 00:25 | 40.73532 | -73.41353 | 78 ft | 5 kts | 357° |
| 2026-05-07 00:25 | 40.73597 | -73.41345 | 80 ft | 10 kts | 0° |
| 2026-05-07 00:26 | 40.73625 | -73.41351 | 81 ft | 0 kts | 319° |
| 2026-05-07 00:26 | 40.73632 | -73.41395 | 84 ft | 16 kts | 267° |
| 2026-05-07 00:26 | 40.73533 | -73.41446 | 81 ft | 34 kts | 174° |
| 2026-05-07 00:27 | 40.73105 | -73.41436 | 85 ft | 95 kts | 182° |
| 2026-05-07 00:27 | 40.72357 | -73.41272 | 575 ft | 129 kts | 146° |
| 2026-05-07 00:27 | 40.72374 | -73.39942 | 716 ft | 187 kts | 46° |
| 2026-05-07 00:27 | 40.73561 | -73.39001 | 1040 ft | 208 kts | 20° |
| 2026-05-07 00:28 | 40.74951 | -73.38398 | 1319 ft | 224 kts | 9° |
| 2026-05-07 00:28 | 40.76520 | -73.38125 | 1755 ft | 219 kts | 354° |
| 2026-05-07 00:28 | 40.78019 | -73.37943 | 2348 ft | 221 kts | 9° |
| 2026-05-07 00:28 | 40.79441 | -73.37094 | 2739 ft | 227 kts | 28° |
| 2026-05-07 00:29 | 40.80579 | -73.35708 | 3173 ft | 214 kts | 50° |
| 2026-05-07 00:29 | 40.81314 | -73.34058 | 3380 ft | 224 kts | 55° |
| 2026-05-07 00:30 | 40.84282 | -73.29223 | 3783 ft | 239 kts | 62° |
| 2026-05-07 00:30 | 40.84903 | -73.27170 | 3808 ft | 248 kts | 72° |
| 2026-05-07 00:30 | 40.85424 | -73.24966 | 3825 ft | 253 kts | 71° |
| 2026-05-07 00:30 | 40.86034 | -73.22782 | 3769 ft | 256 kts | 67° |
| 2026-05-07 00:31 | 40.86759 | -73.20541 | 3205 ft | 275 kts | 66° |
| 2026-05-07 00:31 | 40.87492 | -73.18337 | 3574 ft | 251 kts | 61° |
| 2026-05-07 00:31 | 40.88285 | -73.16237 | 3412 ft | 255 kts | 62° |
| 2026-05-07 00:31 | 40.89070 | -73.14360 | 3995 ft | 236 kts | 60° |
| 2026-05-07 00:32 | 40.89904 | -73.12636 | 4270 ft | 212 kts | 50° |
| 2026-05-07 00:32 | 40.90541 | -73.10985 | 4440 ft | 200 kts | 79° |
| 2026-05-07 00:32 | 40.90583 | -73.09178 | 4649 ft | 173 kts | 103° |
| 2026-05-07 00:32 | 40.90470 | -73.07628 | 4622 ft | 187 kts | 94° |
| 2026-05-07 00:33 | 40.90521 | -73.05848 | 4483 ft | 194 kts | 89° |
| 2026-05-07 00:33 | 40.90577 | -73.04040 | 4170 ft | 210 kts | 88° |
| 2026-05-07 00:33 | 40.90728 | -73.02055 | 3731 ft | 222 kts | 83° |
| 2026-05-07 00:33 | 40.90900 | -73.00646 | 3072 ft | 246 kts | 80° |
| 2026-05-07 00:34 | 40.91235 | -72.98498 | 3163 ft | 222 kts | 77° |
| 2026-05-07 00:34 | 40.91634 | -72.96656 | 3407 ft | 198 kts | 68° |
| 2026-05-07 00:34 | 40.92181 | -72.95043 | 3659 ft | 210 kts | 62° |
| 2026-05-07 00:34 | 40.92865 | -72.93164 | 3085 ft | 254 kts | 66° |
| 2026-05-07 00:35 | 40.93554 | -72.91091 | 3569 ft | 214 kts | 54° |
| 2026-05-07 00:35 | 40.94326 | -72.89464 | 3913 ft | 225 kts | 65° |
| 2026-05-07 00:35 | 40.94927 | -72.87428 | 3703 ft | 246 kts | 68° |
| 2026-05-07 00:35 | 40.95552 | -72.85289 | 3595 ft | 251 kts | 67° |
| 2026-05-07 00:36 | 40.96206 | -72.83133 | 3580 ft | 254 kts | 66° |
| 2026-05-07 00:36 | 40.96881 | -72.80964 | 3546 ft | 255 kts | 66° |
| 2026-05-07 00:36 | 40.97578 | -72.78798 | 3530 ft | 256 kts | 66° |
| 2026-05-07 00:36 | 40.98266 | -72.76653 | 3522 ft | 256 kts | 65° |
| 2026-05-07 00:37 | 40.98956 | -72.74476 | 3517 ft | 256 kts | 66° |
| 2026-05-07 00:37 | 40.99657 | -72.72306 | 3514 ft | 257 kts | 65° |
| 2026-05-07 00:37 | 41.00358 | -72.70129 | 3505 ft | 256 kts | 66° |
| 2026-05-07 00:37 | 41.01064 | -72.67962 | 3491 ft | 255 kts | 65° |
| 2026-05-07 00:38 | 41.01761 | -72.65804 | 3496 ft | 255 kts | 65° |
| 2026-05-07 00:38 | 41.02451 | -72.63647 | 3487 ft | 253 kts | 65° |
| 2026-05-07 00:38 | 41.03140 | -72.61510 | 3480 ft | 251 kts | 66° |
| 2026-05-07 00:38 | 41.03923 | -72.59454 | 3496 ft | 250 kts | 56° |
| 2026-05-07 00:39 | 41.04889 | -72.57540 | 3497 ft | 250 kts | 52° |
| 2026-05-07 00:39 | 41.05915 | -72.55680 | 3499 ft | 250 kts | 50° |
| 2026-05-07 00:39 | 41.06956 | -72.53827 | 3498 ft | 251 kts | 51° |
| 2026-05-07 00:39 | 41.07995 | -72.51964 | 3491 ft | 252 kts | 51° |
| 2026-05-07 00:40 | 41.09015 | -72.50116 | 3495 ft | 252 kts | 51° |
| 2026-05-07 00:40 | 41.10045 | -72.48231 | 3493 ft | 252 kts | 51° |
| 2026-05-07 00:40 | 41.11073 | -72.46339 | 3491 ft | 252 kts | 52° |
| 2026-05-07 00:40 | 41.12098 | -72.44441 | 3488 ft | 253 kts | 52° |
| 2026-05-07 00:41 | 41.13117 | -72.42545 | 3484 ft | 252 kts | 52° |
| 2026-05-07 00:41 | 41.14135 | -72.40652 | 3494 ft | 252 kts | 52° |
| 2026-05-07 00:41 | 41.15151 | -72.38757 | 3489 ft | 252 kts | 52° |
| 2026-05-07 00:41 | 41.16166 | -72.36860 | 3493 ft | 252 kts | 52° |
| 2026-05-07 00:42 | 41.17182 | -72.34961 | 3496 ft | 253 kts | 52° |
| 2026-05-07 00:42 | 41.18187 | -72.33082 | 3495 ft | 253 kts | 52° |
| 2026-05-07 00:42 | 41.19207 | -72.31174 | 3498 ft | 254 kts | 52° |
| 2026-05-07 00:42 | 41.20228 | -72.29263 | 3480 ft | 254 kts | 52° |
| 2026-05-07 00:43 | 41.21250 | -72.27349 | 3481 ft | 254 kts | 52° |
| 2026-05-07 00:43 | 41.22270 | -72.25436 | 3476 ft | 254 kts | 51° |
| 2026-05-07 00:43 | 41.23292 | -72.23521 | 3476 ft | 254 kts | 52° |
| 2026-05-07 00:43 | 41.24312 | -72.21607 | 3473 ft | 253 kts | 52° |
| 2026-05-07 00:44 | 41.25331 | -72.19694 | 3478 ft | 254 kts | 52° |
| 2026-05-07 00:44 | 41.26353 | -72.17776 | 3484 ft | 255 kts | 52° |
| 2026-05-07 00:44 | 41.27381 | -72.15848 | 3483 ft | 255 kts | 52° |
| 2026-05-07 00:44 | 41.28405 | -72.13919 | 3491 ft | 256 kts | 51° |
| 2026-05-07 00:45 | 41.29438 | -72.11967 | 3515 ft | 259 kts | 52° |
| 2026-05-07 00:45 | 41.30498 | -72.09970 | 3471 ft | 268 kts | 52° |
| 2026-05-07 00:45 | 41.31578 | -72.07937 | 3462 ft | 270 kts | 52° |
| 2026-05-07 00:45 | 41.32654 | -72.05928 | 3449 ft | 270 kts | 51° |
| 2026-05-07 00:46 | 41.33811 | -72.03972 | 3446 ft | 268 kts | 47° |
| 2026-05-07 00:46 | 41.35027 | -72.02095 | 3467 ft | 267 kts | 46° |
| 2026-05-07 00:46 | 41.36236 | -72.00213 | 3458 ft | 268 kts | 47° |
| 2026-05-07 00:46 | 41.37444 | -71.98317 | 3472 ft | 269 kts | 46° |
| 2026-05-07 00:47 | 41.38653 | -71.96413 | 3470 ft | 269 kts | 47° |
| 2026-05-07 00:47 | 41.39864 | -71.94508 | 3484 ft | 270 kts | 47° |
| 2026-05-07 00:47 | 41.41082 | -71.92591 | 3487 ft | 270 kts | 47° |
| 2026-05-07 00:47 | 41.42300 | -71.90679 | 3495 ft | 270 kts | 47° |
| 2026-05-07 00:48 | 41.43518 | -71.88764 | 3492 ft | 271 kts | 46° |
| 2026-05-07 00:48 | 41.44740 | -71.86844 | 3488 ft | 271 kts | 47° |
| 2026-05-07 00:48 | 41.45959 | -71.84928 | 3485 ft | 271 kts | 47° |
| 2026-05-07 00:48 | 41.47176 | -71.83008 | 3488 ft | 271 kts | 47° |
| 2026-05-07 00:49 | 41.48397 | -71.81085 | 3493 ft | 272 kts | 47° |
| 2026-05-07 00:49 | 41.49602 | -71.79184 | 3492 ft | 272 kts | 47° |
| 2026-05-07 00:49 | 41.50826 | -71.77249 | 3488 ft | 272 kts | 47° |
| 2026-05-07 00:49 | 41.52045 | -71.75317 | 3486 ft | 273 kts | 47° |
| 2026-05-07 00:50 | 41.53270 | -71.73378 | 3505 ft | 274 kts | 47° |
| 2026-05-07 00:50 | 41.54502 | -71.71429 | 3496 ft | 276 kts | 47° |
| 2026-05-07 00:50 | 41.55737 | -71.69464 | 3490 ft | 277 kts | 47° |
| 2026-05-07 00:50 | 41.56976 | -71.67496 | 3464 ft | 277 kts | 47° |
| 2026-05-07 00:51 | 41.58210 | -71.65528 | 3468 ft | 276 kts | 47° |
| 2026-05-07 00:51 | 41.59439 | -71.63565 | 3456 ft | 275 kts | 47° |
| 2026-05-07 00:51 | 41.60665 | -71.61612 | 3478 ft | 274 kts | 47° |
| 2026-05-07 00:51 | 41.61889 | -71.59658 | 3469 ft | 274 kts | 47° |
| 2026-05-07 00:52 | 41.63110 | -71.57702 | 3473 ft | 274 kts | 47° |
| 2026-05-07 00:52 | 41.64332 | -71.55744 | 3474 ft | 274 kts | 47° |
| 2026-05-07 00:52 | 41.65552 | -71.53781 | 3487 ft | 275 kts | 47° |
| 2026-05-07 00:52 | 41.66777 | -71.51810 | 3488 ft | 276 kts | 47° |
| 2026-05-07 00:53 | 41.68008 | -71.49833 | 3471 ft | 277 kts | 47° |
| 2026-05-07 00:53 | 41.69235 | -71.47856 | 3462 ft | 276 kts | 47° |
| 2026-05-07 00:53 | 41.70458 | -71.45881 | 3478 ft | 275 kts | 48° |
| 2026-05-07 00:53 | 41.71664 | -71.43926 | 3486 ft | 277 kts | 47° |
| 2026-05-07 00:54 | 41.72893 | -71.41933 | 3483 ft | 278 kts | 48° |
| 2026-05-07 00:54 | 41.74127 | -71.39932 | 3473 ft | 278 kts | 48° |
| 2026-05-07 00:54 | 41.75358 | -71.37927 | 3460 ft | 278 kts | 48° |
| 2026-05-07 00:54 | 41.76582 | -71.35931 | 3462 ft | 276 kts | 48° |
| 2026-05-07 00:55 | 41.77800 | -71.33945 | 3465 ft | 276 kts | 47° |
| 2026-05-07 00:55 | 41.79019 | -71.31960 | 3461 ft | 275 kts | 48° |
| 2026-05-07 00:55 | 41.80232 | -71.29979 | 3471 ft | 274 kts | 48° |
| 2026-05-07 00:55 | 41.81444 | -71.27999 | 3470 ft | 275 kts | 47° |
| 2026-05-07 00:56 | 41.82689 | -71.26063 | 3468 ft | 272 kts | 41° |
| 2026-05-07 00:56 | 41.84098 | -71.24382 | 3511 ft | 272 kts | 36° |
| 2026-05-07 00:56 | 41.85556 | -71.22734 | 3614 ft | 276 kts | 36° |
| 2026-05-07 00:56 | 41.87047 | -71.21093 | 3670 ft | 279 kts | 35° |
| 2026-05-07 00:57 | 41.88563 | -71.19438 | 3692 ft | 283 kts | 35° |
| 2026-05-07 00:57 | 41.90141 | -71.17863 | 3677 ft | 280 kts | 25° |
| 2026-05-07 00:57 | 41.91901 | -71.16841 | 3689 ft | 273 kts | 13° |
| 2026-05-07 00:57 | 41.93668 | -71.15985 | 3670 ft | 274 kts | 14° |
| 2026-05-07 00:58 | 41.95452 | -71.15042 | 3645 ft | 276 kts | 16° |
| 2026-05-07 00:58 | 41.97224 | -71.14071 | 3650 ft | 274 kts | 17° |
| 2026-05-07 00:58 | 41.98982 | -71.13094 | 3587 ft | 272 kts | 16° |
| 2026-05-07 00:58 | 42.00727 | -71.12108 | 3530 ft | 272 kts | 17° |
| 2026-05-07 00:59 | 42.04172 | -71.10137 | 3471 ft | 265 kts | 17° |
| 2026-05-07 00:59 | 42.05863 | -71.09171 | 3503 ft | 263 kts | 17° |
| 2026-05-07 00:59 | 42.07550 | -71.08207 | 3498 ft | 262 kts | 17° |
| 2026-05-07 01:00 | 42.09226 | -71.07240 | 3477 ft | 262 kts | 17° |
| 2026-05-07 01:00 | 42.10903 | -71.06278 | 3476 ft | 262 kts | 17° |
| 2026-05-07 01:00 | 42.12581 | -71.05313 | 3491 ft | 262 kts | 17° |
| 2026-05-07 01:00 | 42.14240 | -71.04358 | 3486 ft | 262 kts | 17° |
| 2026-05-07 01:01 | 42.15922 | -71.03391 | 3480 ft | 262 kts | 17° |
| 2026-05-07 01:01 | 42.17601 | -71.02425 | 3486 ft | 263 kts | 17° |
| 2026-05-07 01:01 | 42.19287 | -71.01456 | 3489 ft | 263 kts | 17° |
| 2026-05-07 01:01 | 42.20974 | -71.00481 | 3564 ft | 264 kts | 19° |
| 2026-05-07 01:02 | 42.22672 | -70.99496 | 3624 ft | 267 kts | 18° |
| 2026-05-07 01:02 | 42.24397 | -70.98501 | 3670 ft | 271 kts | 17° |
| 2026-05-07 01:02 | 42.26111 | -70.97514 | 3715 ft | 258 kts | 18° |
| 2026-05-07 01:02 | 42.27716 | -70.96578 | 3766 ft | 246 kts | 18° |
| 2026-05-07 01:03 | 42.29241 | -70.95693 | 3817 ft | 234 kts | 17° |
| 2026-05-07 01:03 | 42.30705 | -70.94847 | 3782 ft | 224 kts | 16° |
| 2026-05-07 01:03 | 42.32109 | -70.94037 | 3778 ft | 216 kts | 16° |
| 2026-05-07 01:03 | 42.33470 | -70.93254 | 3764 ft | 209 kts | 16° |
| 2026-05-07 01:04 | 42.34818 | -70.92479 | 3581 ft | 214 kts | 15° |
| 2026-05-07 01:04 | 42.36211 | -70.91681 | 3332 ft | 220 kts | 16° |
| 2026-05-07 01:04 | 42.37615 | -70.90861 | 3067 ft | 220 kts | 17° |
| 2026-05-07 01:04 | 42.39027 | -70.90120 | 2854 ft | 212 kts | 1° |
| 2026-05-07 01:05 | 42.40441 | -70.90189 | 2656 ft | 204 kts | 353° |
| 2026-05-07 01:05 | 42.41794 | -70.89484 | 2565 ft | 215 kts | 30° |
| 2026-05-07 01:05 | 42.42984 | -70.88324 | 2520 ft | 212 kts | 30° |
| 2026-05-07 01:05 | 42.44150 | -70.87145 | 2494 ft | 207 kts | 31° |
| 2026-05-07 01:06 | 42.45293 | -70.85987 | 2470 ft | 203 kts | 32° |
| 2026-05-07 01:06 | 42.46425 | -70.84862 | 2460 ft | 201 kts | 32° |
| 2026-05-07 01:06 | 42.47546 | -70.83727 | 2465 ft | 200 kts | 31° |
| 2026-05-07 01:06 | 42.48654 | -70.82599 | 2453 ft | 197 kts | 27° |
| 2026-05-07 01:07 | 42.49877 | -70.82245 | 2458 ft | 171 kts | 334° |
| 2026-05-07 01:07 | 42.50638 | -70.83192 | 2468 ft | 142 kts | 275° |
| 2026-05-07 01:07 | 42.50651 | -70.84495 | 2450 ft | 135 kts | 262° |
| 2026-05-07 01:07 | 42.50567 | -70.85683 | 2456 ft | 122 kts | 261° |
| 2026-05-07 01:08 | 42.50448 | -70.86790 | 2457 ft | 115 kts | 259° |
| 2026-05-07 01:08 | 42.50321 | -70.87842 | 2457 ft | 111 kts | 258° |
| 2026-05-07 01:08 | 42.50138 | -70.88835 | 2447 ft | 107 kts | 245° |
| 2026-05-07 01:08 | 42.49822 | -70.89728 | 2454 ft | 104 kts | 253° |
| 2026-05-07 01:09 | 42.49630 | -70.90667 | 2458 ft | 103 kts | 256° |
| 2026-05-07 01:09 | 42.49489 | -70.91615 | 2450 ft | 102 kts | 257° |
| 2026-05-07 01:09 | 42.49229 | -70.92488 | 2464 ft | 101 kts | 237° |
| 2026-05-07 01:09 | 42.48789 | -70.93242 | 2450 ft | 103 kts | 230° |
| 2026-05-07 01:10 | 42.48215 | -70.93925 | 2215 ft | 115 kts | 223° |
| 2026-05-07 01:10 | 42.47559 | -70.94540 | 1951 ft | 114 kts | 219° |
| 2026-05-07 01:10 | 42.46887 | -70.95073 | 1754 ft | 109 kts | 217° |
| 2026-05-07 01:10 | 42.46215 | -70.95441 | 1688 ft | 103 kts | 206° |
| 2026-05-07 01:11 | 42.45547 | -70.95673 | 1699 ft | 96 kts | 206° |
| 2026-05-07 01:11 | 42.44919 | -70.95891 | 1650 ft | 94 kts | 206° |
| 2026-05-07 01:11 | 42.44287 | -70.96156 | 1463 ft | 95 kts | 208° |
| 2026-05-07 01:11 | 42.43688 | -70.96548 | 1223 ft | 97 kts | 213° |
| 2026-05-07 01:12 | 42.43117 | -70.97064 | 964 ft | 101 kts | 217° |
| 2026-05-07 01:12 | 42.42490 | -70.97572 | 832 ft | 110 kts | 211° |
| 2026-05-07 01:12 | 42.41718 | -70.97978 | 902 ft | 128 kts | 204° |
| 2026-05-07 01:12 | 42.40833 | -70.98361 | 861 ft | 128 kts | 199° |
| 2026-05-07 01:13 | 42.40044 | -70.98747 | 713 ft | 114 kts | 204° |
| 2026-05-07 01:13 | 42.39348 | -70.99113 | 487 ft | 100 kts | 203° |
| 2026-05-07 01:13 | 42.38730 | -70.99423 | 335 ft | 89 kts | 201° |
| 2026-05-07 01:13 | 42.38131 | -70.99711 | 229 ft | 93 kts | 202° |
| 2026-05-07 01:14 | 42.37548 | -71.00002 | 99 ft | 83 kts | 200° |
| 2026-05-07 01:14 | 42.37050 | -71.00242 | 27 ft | 68 kts | 199° |
| 2026-05-07 01:14 | 42.36684 | -71.00419 | 22 ft | 46 kts | 198° |
| 2026-05-07 01:14 | 42.36457 | -71.00534 | 25 ft | 26 kts | 210° |
| 2026-05-07 01:15 | 42.36411 | -71.00719 | 24 ft | 15 kts | 279° |
| 2026-05-07 01:15 | 42.36432 | -71.00786 | 23 ft | 7 kts | 298° |
| 2026-05-07 01:15 | 42.36456 | -71.00856 | 22 ft | 6 kts | 290° |
| 2026-05-07 01:15 | 42.36464 | -71.00883 | 23 ft | 0 kts | 290° |
| 2026-05-07 01:16 | 42.36483 | -71.00946 | 22 ft | 15 kts | 293° |
| 2026-05-07 01:17 | 42.36533 | -71.01106 | 22 ft | 21 kts | 291° |
| 2026-05-07 01:17 | 42.36583 | -71.01270 | 22 ft | 13 kts | 306° |
| 2026-05-07 01:17 | 42.36695 | -71.01286 | 22 ft | 20 kts | 0° |
| 2026-05-07 01:17 | 42.36833 | -71.01340 | 22 ft | 21 kts | 320° |
| 2026-05-07 01:18 | 42.36955 | -71.01495 | 22 ft | 25 kts | 313° |
| 2026-05-07 01:18 | 42.37079 | -71.01667 | 23 ft | 27 kts | 311° |
| 2026-05-07 01:18 | 42.37188 | -71.01886 | 22 ft | 28 kts | 300° |
| 2026-05-07 01:18 | 42.37305 | -71.02096 | 24 ft | 28 kts | 315° |
| 2026-05-07 01:19 | 42.37389 | -71.02214 | 24 ft | 0 kts | 309° |